sensor_id;sensor_type;location;lat;lon;timestamp;pressure;altitude;pressure_sealevel;temperature;humidity
17254;BME280;32542;52.832;13.816;2022-12-29T00:01:44;100546.84;;;19.70;50.01
17254;BME280;32542;52.832;13.816;2022-12-29T00:04:49;100546.84;;;19.70;49.92
17254;BME280;32542;52.832;13.816;2022-12-29T00:07:53;100540.66;;;19.69;49.90
17254;BME280;32542;52.832;13.816;2022-12-29T00:10:56;100534.47;;;19.69;49.97
17254;BME280;32542;52.832;13.816;2022-12-29T00:13:59;100533.59;;;19.68;50.02
17254;BME280;32542;52.832;13.816;2022-12-29T00:17:26;100529.16;;;19.69;49.99
17254;BME280;32542;52.832;13.816;2022-12-29T00:20:29;100522.06;;;19.69;49.78
17254;BME280;32542;52.832;13.816;2022-12-29T00:23:56;100523.84;;;19.69;49.98
17254;BME280;32542;52.832;13.816;2022-12-29T00:27:25;100528.22;;;19.70;49.91
17254;BME280;32542;52.832;13.816;2022-12-29T00:30:46;100527.38;;;19.69;49.99
17254;BME280;32542;52.832;13.816;2022-12-29T00:34:10;100522.97;;;19.68;50.00
17254;BME280;32542;52.832;13.816;2022-12-29T00:37:30;100525.59;;;19.70;50.00
17254;BME280;32542;52.832;13.816;2022-12-29T00:40:49;100514.94;;;19.70;49.88
17254;BME280;32542;52.832;13.816;2022-12-29T00:44:11;100517.59;;;19.70;49.89
17254;BME280;32542;52.832;13.816;2022-12-29T00:47:15;100517.66;;;19.68;50.14
17254;BME280;32542;52.832;13.816;2022-12-29T00:50:19;100518.53;;;19.69;50.14
17254;BME280;32542;52.832;13.816;2022-12-29T00:53:21;100516.81;;;19.68;50.12
17254;BME280;32542;52.832;13.816;2022-12-29T00:56:25;100516.81;;;19.68;50.05
17254;BME280;32542;52.832;13.816;2022-12-29T00:59:28;100512.44;;;19.67;50.06
17254;BME280;32542;52.832;13.816;2022-12-29T01:02:31;100507.91;;;19.69;50.12
17254;BME280;32542;52.832;13.816;2022-12-29T01:05:35;100507.03;;;19.68;50.13
17254;BME280;32542;52.832;13.816;2022-12-29T01:08:40;100499.94;;;19.69;49.98
17254;BME280;32542;52.832;13.816;2022-12-29T01:11:44;100498.16;;;19.69;50.11
17254;BME280;32542;52.832;13.816;2022-12-29T01:14:46;100495.56;;;19.68;49.98
17254;BME280;32542;52.832;13.816;2022-12-29T01:17:49;100490.25;;;19.68;49.99
17254;BME280;32542;52.832;13.816;2022-12-29T01:20:58;100496.50;;;19.67;49.98
17254;BME280;32542;52.832;13.816;2022-12-29T01:24:02;100490.25;;;19.68;49.91
17254;BME280;32542;52.832;13.816;2022-12-29T01:27:06;100493.84;;;19.67;50.12
17254;BME280;32542;52.832;13.816;2022-12-29T01:30:09;100489.38;;;19.67;50.04
17254;BME280;32542;52.832;13.816;2022-12-29T01:33:12;100484.06;;;19.67;50.02
17254;BME280;32542;52.832;13.816;2022-12-29T01:36:17;100481.41;;;19.67;50.05
17254;BME280;32542;52.832;13.816;2022-12-29T01:39:20;100484.94;;;19.68;50.05
17254;BME280;32542;52.832;13.816;2022-12-29T01:42:24;100478.69;;;19.69;49.96
17254;BME280;32542;52.832;13.816;2022-12-29T01:45:29;100474.25;;;19.69;49.84
17254;BME280;32542;52.832;13.816;2022-12-29T01:48:32;100477.81;;;19.68;50.18
17254;BME280;32542;52.832;13.816;2022-12-29T01:51:37;100465.41;;;19.69;49.98
17254;BME280;32542;52.832;13.816;2022-12-29T01:54:43;100470.72;;;19.69;49.86
17254;BME280;32542;52.832;13.816;2022-12-29T01:57:52;100464.53;;;19.68;49.96
17254;BME280;32542;52.832;13.816;2022-12-29T02:00:55;100461.88;;;19.68;49.88
17254;BME280;32542;52.832;13.816;2022-12-29T02:03:58;100459.22;;;19.68;49.89
17254;BME280;32542;52.832;13.816;2022-12-29T02:07:03;100460.09;;;19.69;50.04
17254;BME280;32542;52.832;13.816;2022-12-29T02:10:08;100462.75;;;19.69;50.05
17254;BME280;32542;52.832;13.816;2022-12-29T02:13:15;100462.75;;;19.69;50.02
17254;BME280;32542;52.832;13.816;2022-12-29T02:16:31;100459.22;;;19.68;50.04
17254;BME280;32542;52.832;13.816;2022-12-29T02:20:04;100454.78;;;19.69;50.11
17254;BME280;32542;52.832;13.816;2022-12-29T02:23:26;100447.66;;;19.69;49.88
17254;BME280;32542;52.832;13.816;2022-12-29T02:26:48;100445.00;;;19.69;50.12
17254;BME280;32542;52.832;13.816;2022-12-29T02:30:06;100445.88;;;19.70;50.00
17254;BME280;32542;52.832;13.816;2022-12-29T02:33:21;100438.84;;;19.69;50.01
17254;BME280;32542;52.832;13.816;2022-12-29T02:36:34;100444.16;;;19.69;50.05
17254;BME280;32542;52.832;13.816;2022-12-29T02:39:43;100431.81;;;19.68;49.96
17254;BME280;32542;52.832;13.816;2022-12-29T02:42:56;100430.09;;;19.67;49.98
17254;BME280;32542;52.832;13.816;2022-12-29T02:46:06;100421.25;;;19.66;50.05
17254;BME280;32542;52.832;13.816;2022-12-29T02:49:18;100409.69;;;19.67;50.02
17254;BME280;32542;52.832;13.816;2022-12-29T02:52:25;100409.78;;;19.66;49.92
17254;BME280;32542;52.832;13.816;2022-12-29T02:55:30;100414.16;;;19.67;50.01
17254;BME280;32542;52.832;13.816;2022-12-29T02:58:33;100408.84;;;19.67;50.05
17254;BME280;32542;52.832;13.816;2022-12-29T03:01:49;100409.63;;;19.69;49.98
17254;BME280;32542;52.832;13.816;2022-12-29T03:05:31;100395.47;;;19.68;50.11
17254;BME280;32542;52.832;13.816;2022-12-29T03:08:46;100399.94;;;19.68;50.13
17254;BME280;32542;52.832;13.816;2022-12-29T03:11:57;100401.66;;;19.69;49.90
17254;BME280;32542;52.832;13.816;2022-12-29T03:15:20;100397.28;;;19.68;50.00
17254;BME280;32542;52.832;13.816;2022-12-29T03:18:47;100387.59;;;19.67;50.09
17254;BME280;32542;52.832;13.816;2022-12-29T03:21:56;100390.25;;;19.67;49.92
17254;BME280;32542;52.832;13.816;2022-12-29T03:25:29;100388.44;;;19.67;49.97
17254;BME280;32542;52.832;13.816;2022-12-29T03:28:37;100392.91;;;19.67;50.05
17254;BME280;32542;52.832;13.816;2022-12-29T03:31:43;100373.38;;;19.68;50.02
17254;BME280;32542;52.832;13.816;2022-12-29T03:34:48;100384.00;;;19.68;50.09
17254;BME280;32542;52.832;13.816;2022-12-29T03:37:58;100368.91;;;19.68;49.87
17254;BME280;32542;52.832;13.816;2022-12-29T03:41:05;100368.06;;;19.68;49.99
17254;BME280;32542;52.832;13.816;2022-12-29T03:44:10;100372.34;;;19.70;49.96
17254;BME280;32542;52.832;13.816;2022-12-29T03:47:15;100368.84;;;19.70;49.96
17254;BME280;32542;52.832;13.816;2022-12-29T03:50:19;100362.59;;;19.71;49.99
17254;BME280;32542;52.832;13.816;2022-12-29T03:53:24;100351.97;;;19.71;50.02
17254;BME280;32542;52.832;13.816;2022-12-29T03:56:27;100351.97;;;19.71;49.96
17254;BME280;32542;52.832;13.816;2022-12-29T03:59:30;100357.28;;;19.71;49.95
17254;BME280;32542;52.832;13.816;2022-12-29T04:02:33;100362.59;;;19.71;49.97
17254;BME280;32542;52.832;13.816;2022-12-29T04:05:36;100359.00;;;19.72;50.06
17254;BME280;32542;52.832;13.816;2022-12-29T04:08:41;100368.75;;;19.71;49.84
17254;BME280;32542;52.832;13.816;2022-12-29T04:11:44;100367.91;;;19.71;49.84
17254;BME280;32542;52.832;13.816;2022-12-29T04:14:47;100370.50;;;19.72;49.95
17254;BME280;32542;52.832;13.816;2022-12-29T04:17:52;100370.50;;;19.72;49.97
17254;BME280;32542;52.832;13.816;2022-12-29T04:20:55;100360.72;;;19.73;49.94
17254;BME280;32542;52.832;13.816;2022-12-29T04:24:08;100366.03;;;19.73;49.90
17254;BME280;32542;52.832;13.816;2022-12-29T04:27:15;100353.69;;;19.72;49.89
17254;BME280;32542;52.832;13.816;2022-12-29T04:30:43;100353.69;;;19.72;50.00
17254;BME280;32542;52.832;13.816;2022-12-29T04:34:02;100351.91;;;19.72;49.78
17254;BME280;32542;52.832;13.816;2022-12-29T04:37:05;100351.97;;;19.71;49.93
17254;BME280;32542;52.832;13.816;2022-12-29T04:40:11;100357.28;;;19.71;50.00
17254;BME280;32542;52.832;13.816;2022-12-29T04:43:15;100357.34;;;19.69;49.87
17254;BME280;32542;52.832;13.816;2022-12-29T04:46:38;100354.69;;;19.69;49.98
17254;BME280;32542;52.832;13.816;2022-12-29T04:49:45;100336.97;;;19.70;50.04
17254;BME280;32542;52.832;13.816;2022-12-29T04:53:06;100352.91;;;19.70;49.91
17254;BME280;32542;52.832;13.816;2022-12-29T04:56:11;100349.31;;;19.71;50.17
17254;BME280;32542;52.832;13.816;2022-12-29T04:59:14;100344.94;;;19.70;50.05
17254;BME280;32542;52.832;13.816;2022-12-29T05:02:21;100329.94;;;19.69;49.89
17254;BME280;32542;52.832;13.816;2022-12-29T05:05:25;100334.31;;;19.70;50.06
17254;BME280;32542;52.832;13.816;2022-12-29T05:08:28;100333.44;;;19.69;50.03
17254;BME280;32542;52.832;13.816;2022-12-29T05:11:35;100340.56;;;19.69;50.00
17254;BME280;32542;52.832;13.816;2022-12-29T05:14:38;100338.84;;;19.68;49.91
17254;BME280;32542;52.832;13.816;2022-12-29T05:17:41;100321.09;;;19.68;49.99
17254;BME280;32542;52.832;13.816;2022-12-29T05:20:45;100309.63;;;19.68;50.02
17254;BME280;32542;52.832;13.816;2022-12-29T05:23:48;100317.59;;;19.68;50.07
17254;BME280;32542;52.832;13.816;2022-12-29T05:26:52;100309.63;;;19.68;49.99
17254;BME280;32542;52.832;13.816;2022-12-29T05:30:18;100315.78;;;19.68;50.09
17254;BME280;32542;52.832;13.816;2022-12-29T05:33:21;100309.63;;;19.68;50.03
17254;BME280;32542;52.832;13.816;2022-12-29T05:36:26;100306.03;;;19.69;50.03
17254;BME280;32542;52.832;13.816;2022-12-29T05:39:36;100296.34;;;19.68;49.98
17254;BME280;32542;52.832;13.816;2022-12-29T05:42:42;100293.69;;;19.68;50.17
17254;BME280;32542;52.832;13.816;2022-12-29T05:46:07;100283.06;;;19.68;49.98
17254;BME280;32542;52.832;13.816;2022-12-29T05:49:21;100267.13;;;19.68;50.04
17254;BME280;32542;52.832;13.816;2022-12-29T05:52:29;100272.44;;;19.68;50.04
17254;BME280;32542;52.832;13.816;2022-12-29T05:55:32;100276.91;;;19.67;49.97
17254;BME280;32542;52.832;13.816;2022-12-29T05:58:37;100277.75;;;19.68;50.03
17254;BME280;32542;52.832;13.816;2022-12-29T06:01:41;100287.44;;;19.69;50.14
17254;BME280;32542;52.832;13.816;2022-12-29T06:04:45;100283.06;;;19.68;50.01
17254;BME280;32542;52.832;13.816;2022-12-29T06:07:48;100276.91;;;19.67;50.06
17254;BME280;32542;52.832;13.816;2022-12-29T06:10:51;100290.00;;;19.70;49.98
17254;BME280;32542;52.832;13.816;2022-12-29T06:13:56;100287.34;;;19.70;49.95
17254;BME280;32542;52.832;13.816;2022-12-29T06:16:59;100279.38;;;19.70;49.99
17254;BME280;32542;52.832;13.816;2022-12-29T06:20:02;100277.59;;;19.71;50.08
17254;BME280;32542;52.832;13.816;2022-12-29T06:23:05;100280.31;;;19.69;49.90
17254;BME280;32542;52.832;13.816;2022-12-29T06:26:08;100267.91;;;19.70;50.00
17254;BME280;32542;52.832;13.816;2022-12-29T06:29:13;100275.88;;;19.70;50.02
17254;BME280;32542;52.832;13.816;2022-12-29T06:32:18;100282.03;;;19.70;49.94
17254;BME280;32542;52.832;13.816;2022-12-29T06:35:25;100286.50;;;19.70;49.93
17254;BME280;32542;52.832;13.816;2022-12-29T06:38:28;100275.88;;;19.70;49.95
17254;BME280;32542;52.832;13.816;2022-12-29T06:41:32;100290.09;;;19.69;49.92
17254;BME280;32542;52.832;13.816;2022-12-29T06:44:58;100290.97;;;19.69;50.03
17254;BME280;32542;52.832;13.816;2022-12-29T06:48:02;100302.44;;;19.70;50.04
17254;BME280;32542;52.832;13.816;2022-12-29T06:51:05;100301.56;;;19.69;50.03
17254;BME280;32542;52.832;13.816;2022-12-29T06:54:08;100291.81;;;19.70;49.99
17254;BME280;32542;52.832;13.816;2022-12-29T06:57:11;100282.03;;;19.70;50.02
17254;BME280;32542;52.832;13.816;2022-12-29T07:00:16;100282.13;;;19.69;50.11
17254;BME280;32542;52.832;13.816;2022-12-29T07:03:25;100277.75;;;19.68;50.01
17254;BME280;32542;52.832;13.816;2022-12-29T07:06:28;100278.59;;;19.68;49.93
17254;BME280;32542;52.832;13.816;2022-12-29T07:09:31;100277.75;;;19.68;49.96
17254;BME280;32542;52.832;13.816;2022-12-29T07:12:34;100286.56;;;19.68;50.03
17254;BME280;32542;52.832;13.816;2022-12-29T07:15:38;100281.34;;;19.67;50.22
17254;BME280;32542;52.832;13.816;2022-12-29T07:18:41;100277.75;;;19.68;50.10
17254;BME280;32542;52.832;13.816;2022-12-29T07:21:44;100283.06;;;19.68;50.02
17254;BME280;32542;52.832;13.816;2022-12-29T07:24:47;100279.47;;;19.69;49.96
17254;BME280;32542;52.832;13.816;2022-12-29T07:27:50;100288.38;;;19.68;50.12
17254;BME280;32542;52.832;13.816;2022-12-29T07:30:54;100284.78;;;19.69;50.15
17254;BME280;32542;52.832;13.816;2022-12-29T07:33:57;100267.97;;;19.68;50.12
17254;BME280;32542;52.832;13.816;2022-12-29T07:37:00;100283.06;;;19.68;50.00
17254;BME280;32542;52.832;13.816;2022-12-29T07:40:04;100278.59;;;19.68;50.08
17254;BME280;32542;52.832;13.816;2022-12-29T07:43:07;100274.16;;;19.69;50.10
17254;BME280;32542;52.832;13.816;2022-12-29T07:46:18;100267.97;;;19.68;50.11
17254;BME280;32542;52.832;13.816;2022-12-29T07:49:41;100281.25;;;19.68;50.15
17254;BME280;32542;52.832;13.816;2022-12-29T07:52:44;100268.94;;;19.67;50.09
17254;BME280;32542;52.832;13.816;2022-12-29T07:55:49;100272.44;;;19.68;50.09
17254;BME280;32542;52.832;13.816;2022-12-29T07:58:52;100267.13;;;19.68;50.09
17254;BME280;32542;52.832;13.816;2022-12-29T08:01:56;100267.13;;;19.68;50.06
17254;BME280;32542;52.832;13.816;2022-12-29T08:04:59;100262.59;;;19.70;50.07
17254;BME280;32542;52.832;13.816;2022-12-29T08:08:02;100267.03;;;19.69;50.08
17254;BME280;32542;52.832;13.816;2022-12-29T08:11:05;100275.88;;;19.70;50.12
17254;BME280;32542;52.832;13.816;2022-12-29T08:14:08;100272.28;;;19.71;50.08
17254;BME280;32542;52.832;13.816;2022-12-29T08:17:12;100286.50;;;19.70;50.07
17254;BME280;32542;52.832;13.816;2022-12-29T08:20:15;100277.66;;;19.69;50.04
17254;BME280;32542;52.832;13.816;2022-12-29T08:23:18;100259.94;;;19.70;50.09
17254;BME280;32542;52.832;13.816;2022-12-29T08:26:21;100273.22;;;19.70;50.08
17254;BME280;32542;52.832;13.816;2022-12-29T08:29:24;100265.25;;;19.70;49.98
17254;BME280;32542;52.832;13.816;2022-12-29T08:32:29;100270.56;;;19.70;50.03
17254;BME280;32542;52.832;13.816;2022-12-29T08:35:32;100267.91;;;19.70;50.12
17254;BME280;32542;52.832;13.816;2022-12-29T08:38:35;100270.56;;;19.70;50.06
17254;BME280;32542;52.832;13.816;2022-12-29T08:41:38;100255.47;;;19.70;50.07
17254;BME280;32542;52.832;13.816;2022-12-29T08:44:41;100258.94;;;19.72;50.11
17254;BME280;32542;52.832;13.816;2022-12-29T08:47:46;100280.19;;;19.72;50.07
17254;BME280;32542;52.832;13.816;2022-12-29T08:50:49;100284.63;;;19.72;50.05
17254;BME280;32542;52.832;13.816;2022-12-29T08:53:52;100274.88;;;19.72;50.05
17254;BME280;32542;52.832;13.816;2022-12-29T08:56:55;100261.59;;;19.72;50.00
17254;BME280;32542;52.832;13.816;2022-12-29T09:00:10;100268.69;;;19.72;50.05
17254;BME280;32542;52.832;13.816;2022-12-29T09:03:14;100266.97;;;19.71;50.08
17254;BME280;32542;52.832;13.816;2022-12-29T09:06:38;100256.34;;;19.71;50.10
17254;BME280;32542;52.832;13.816;2022-12-29T09:09:41;100267.91;;;19.70;50.05
17254;BME280;32542;52.832;13.816;2022-12-29T09:12:44;100272.28;;;19.71;50.06
17254;BME280;32542;52.832;13.816;2022-12-29T09:15:57;100274.00;;;19.72;50.08
17254;BME280;32542;52.832;13.816;2022-12-29T09:19:02;100271.34;;;19.72;49.97
17254;BME280;32542;52.832;13.816;2022-12-29T09:22:05;100249.16;;;19.73;49.93
17254;BME280;32542;52.832;13.816;2022-12-29T09:25:09;100241.19;;;19.73;50.17
17254;BME280;32542;52.832;13.816;2022-12-29T09:28:12;100262.44;;;19.73;50.00
17254;BME280;32542;52.832;13.816;2022-12-29T09:31:14;100269.56;;;19.72;50.04
17254;BME280;32542;52.832;13.816;2022-12-29T09:34:19;100254.47;;;19.73;50.04
17254;BME280;32542;52.832;13.816;2022-12-29T09:37:22;100249.16;;;19.73;49.90
17254;BME280;32542;52.832;13.816;2022-12-29T09:40:28;100252.66;;;19.73;50.17
17254;BME280;32542;52.832;13.816;2022-12-29T09:43:49;100240.25;;;19.74;50.16
17254;BME280;32542;52.832;13.816;2022-12-29T09:46:56;100250.00;;;19.73;49.99
17254;BME280;32542;52.832;13.816;2022-12-29T09:50:04;100249.16;;;19.73;50.21
17254;BME280;32542;52.832;13.816;2022-12-29T09:53:13;100261.50;;;19.74;50.18
17254;BME280;32542;52.832;13.816;2022-12-29T09:56:19;100241.19;;;19.73;50.05
17254;BME280;32542;52.832;13.816;2022-12-29T09:59:30;100240.25;;;19.74;50.09
17254;BME280;32542;52.832;13.816;2022-12-29T10:02:41;100247.25;;;19.75;50.10
17254;BME280;32542;52.832;13.816;2022-12-29T10:05:49;100227.84;;;19.74;50.12
17254;BME280;32542;52.832;13.816;2022-12-29T10:08:57;100241.13;;;19.74;50.14
17254;BME280;32542;52.832;13.816;2022-12-29T10:12:13;100240.25;;;19.74;50.30
17254;BME280;32542;52.832;13.816;2022-12-29T10:15:38;100240.25;;;19.74;50.05
17254;BME280;32542;52.832;13.816;2022-12-29T10:18:59;100239.38;;;19.73;50.13
17254;BME280;32542;52.832;13.816;2022-12-29T10:22:21;100256.19;;;19.74;50.11
17254;BME280;32542;52.832;13.816;2022-12-29T10:25:32;100252.66;;;19.73;50.17
17254;BME280;32542;52.832;13.816;2022-12-29T10:28:40;100254.47;;;19.73;50.30
17254;BME280;32542;52.832;13.816;2022-12-29T10:31:48;100249.16;;;19.73;50.05
17254;BME280;32542;52.832;13.816;2022-12-29T10:34:55;100254.47;;;19.73;50.17
17254;BME280;32542;52.832;13.816;2022-12-29T10:38:04;100238.53;;;19.73;50.11
17254;BME280;32542;52.832;13.816;2022-12-29T10:41:16;100229.63;;;19.74;50.18
17254;BME280;32542;52.832;13.816;2022-12-29T10:44:22;100252.66;;;19.73;50.06
17254;BME280;32542;52.832;13.816;2022-12-29T10:47:31;100234.94;;;19.74;50.10
17254;BME280;32542;52.832;13.816;2022-12-29T10:50:36;100242.91;;;19.74;50.14
17254;BME280;32542;52.832;13.816;2022-12-29T10:53:48;100243.84;;;19.73;50.05
17254;BME280;32542;52.832;13.816;2022-12-29T10:56:55;100233.19;;;19.73;50.21
17254;BME280;32542;52.832;13.816;2022-12-29T11:00:00;100234.06;;;19.73;50.19
17254;BME280;32542;52.832;13.816;2022-12-29T11:03:26;100241.19;;;19.73;50.15
17254;BME280;32542;52.832;13.816;2022-12-29T11:06:38;100229.72;;;19.72;50.25
17254;BME280;32542;52.832;13.816;2022-12-29T11:09:43;100227.97;;;19.71;50.25
17254;BME280;32542;52.832;13.816;2022-12-29T11:12:58;100242.03;;;19.73;50.16
17254;BME280;32542;52.832;13.816;2022-12-29T11:16:01;100237.59;;;19.74;50.20
17254;BME280;32542;52.832;13.816;2022-12-29T11:19:04;100225.19;;;19.74;50.21
17254;BME280;32542;52.832;13.816;2022-12-29T11:22:14;100228.66;;;19.75;50.27
17254;BME280;32542;52.832;13.816;2022-12-29T11:25:23;100243.78;;;19.74;50.05
17254;BME280;32542;52.832;13.816;2022-12-29T11:28:26;100239.38;;;19.73;50.16
17254;BME280;32542;52.832;13.816;2022-12-29T11:31:40;100233.19;;;19.73;50.16
17254;BME280;32542;52.832;13.816;2022-12-29T11:34:43;100230.56;;;19.73;50.28
17254;BME280;32542;52.832;13.816;2022-12-29T11:37:53;100231.41;;;19.73;50.14
17254;BME280;32542;52.832;13.816;2022-12-29T11:41:00;100219.94;;;19.73;50.25
17254;BME280;32542;52.832;13.816;2022-12-29T11:44:05;100218.13;;;19.73;50.12
17254;BME280;32542;52.832;13.816;2022-12-29T11:47:11;100219.94;;;19.73;50.26
17254;BME280;32542;52.832;13.816;2022-12-29T11:50:18;100218.13;;;19.73;50.05
17254;BME280;32542;52.832;13.816;2022-12-29T11:53:24;100233.19;;;19.73;50.18
17254;BME280;32542;52.832;13.816;2022-12-29T11:56:35;100238.47;;;19.74;50.21
17254;BME280;32542;52.832;13.816;2022-12-29T11:59:43;100231.31;;;19.75;50.20
17254;BME280;32542;52.832;13.816;2022-12-29T12:02:51;100228.66;;;19.75;50.09
17254;BME280;32542;52.832;13.816;2022-12-29T12:05:58;100220.69;;;19.75;50.26
17254;BME280;32542;52.832;13.816;2022-12-29T12:09:07;100208.38;;;19.74;50.19
17254;BME280;32542;52.832;13.816;2022-12-29T12:12:22;100211.97;;;19.73;50.09
17254;BME280;32542;52.832;13.816;2022-12-29T12:15:30;100213.69;;;19.74;50.20
17254;BME280;32542;52.832;13.816;2022-12-29T12:18:40;100234.94;;;19.74;50.27
17254;BME280;32542;52.832;13.816;2022-12-29T12:21:47;100222.59;;;19.73;50.15
17254;BME280;32542;52.832;13.816;2022-12-29T12:24:55;100226.09;;;19.73;50.27
17254;BME280;32542;52.832;13.816;2022-12-29T12:28:10;100228.75;;;19.73;50.12
17254;BME280;32542;52.832;13.816;2022-12-29T12:31:18;100235.81;;;19.74;50.24
17254;BME280;32542;52.832;13.816;2022-12-29T12:34:29;100239.28;;;19.75;50.09
17254;BME280;32542;52.832;13.816;2022-12-29T12:38:00;100233.06;;;19.76;50.11
17254;BME280;32542;52.832;13.816;2022-12-29T12:41:08;100232.19;;;19.75;50.30
17254;BME280;32542;52.832;13.816;2022-12-29T12:44:28;100237.50;;;19.75;50.15
17254;BME280;32542;52.832;13.816;2022-12-29T12:47:44;100224.31;;;19.74;50.12
17254;BME280;32542;52.832;13.816;2022-12-29T12:50:56;100240.25;;;19.74;50.12
17254;BME280;32542;52.832;13.816;2022-12-29T12:54:14;100226.97;;;19.74;50.22
17254;BME280;32542;52.832;13.816;2022-12-29T12:57:29;100224.31;;;19.74;50.25
17254;BME280;32542;52.832;13.816;2022-12-29T13:00:42;100233.19;;;19.73;50.28
17254;BME280;32542;52.832;13.816;2022-12-29T13:07:24;100239.38;;;19.73;50.27
17254;BME280;32542;52.832;13.816;2022-12-29T13:10:35;100253.53;;;19.74;50.25
17254;BME280;32542;52.832;13.816;2022-12-29T13:13:51;100260.56;;;19.75;49.97
17254;BME280;32542;52.832;13.816;2022-12-29T13:17:05;100253.44;;;19.75;50.15
17254;BME280;32542;52.832;13.816;2022-12-29T13:20:19;100264.06;;;19.75;50.23
17254;BME280;32542;52.832;13.816;2022-12-29T13:23:29;100272.91;;;19.76;50.21
17254;BME280;32542;52.832;13.816;2022-12-29T13:26:39;100262.38;;;19.74;50.20
17254;BME280;32542;52.832;13.816;2022-12-29T13:29:51;100269.47;;;19.74;50.14
17254;BME280;32542;52.832;13.816;2022-12-29T13:33:05;100274.78;;;19.74;50.22
17254;BME280;32542;52.832;13.816;2022-12-29T13:36:13;100266.81;;;19.74;50.23
17254;BME280;32542;52.832;13.816;2022-12-29T13:39:25;100277.44;;;19.74;50.22
17254;BME280;32542;52.832;13.816;2022-12-29T13:42:29;100272.13;;;19.74;50.27
17254;BME280;32542;52.832;13.816;2022-12-29T13:45:34;100284.47;;;19.75;50.15
17254;BME280;32542;52.832;13.816;2022-12-29T13:48:43;100287.13;;;19.75;50.24
17254;BME280;32542;52.832;13.816;2022-12-29T13:51:49;100284.41;;;19.76;50.15
17254;BME280;32542;52.832;13.816;2022-12-29T13:54:58;100283.53;;;19.76;50.16
17254;BME280;32542;52.832;13.816;2022-12-29T13:58:09;100284.47;;;19.75;50.25
17254;BME280;32542;52.832;13.816;2022-12-29T14:01:19;100283.63;;;19.74;50.14
17254;BME280;32542;52.832;13.816;2022-12-29T14:04:28;100284.47;;;19.75;50.22
17254;BME280;32542;52.832;13.816;2022-12-29T14:07:37;100288.06;;;19.74;50.24
17254;BME280;32542;52.832;13.816;2022-12-29T14:10:46;100305.72;;;19.75;50.42
17254;BME280;32542;52.832;13.816;2022-12-29T14:13:50;100311.09;;;19.73;50.15
17254;BME280;32542;52.832;13.816;2022-12-29T14:16:54;100311.09;;;19.73;50.14
17254;BME280;32542;52.832;13.816;2022-12-29T14:19:58;100311.09;;;19.73;50.27
17254;BME280;32542;52.832;13.816;2022-12-29T14:23:16;100326.13;;;19.74;50.33
17254;BME280;32542;52.832;13.816;2022-12-29T14:26:34;100323.38;;;19.76;50.17
17254;BME280;32542;52.832;13.816;2022-12-29T14:29:44;100331.34;;;19.76;50.20
17254;BME280;32542;52.832;13.816;2022-12-29T14:33:10;100334.00;;;19.76;50.19
17254;BME280;32542;52.832;13.816;2022-12-29T14:36:25;100334.00;;;19.76;50.22
17254;BME280;32542;52.832;13.816;2022-12-29T14:39:37;100352.59;;;19.76;50.20
17254;BME280;32542;52.832;13.816;2022-12-29T14:42:41;100356.19;;;19.75;50.27
17254;BME280;32542;52.832;13.816;2022-12-29T14:45:52;100358.84;;;19.75;50.37
17254;BME280;32542;52.832;13.816;2022-12-29T14:48:57;100356.28;;;19.73;50.31
17254;BME280;32542;52.832;13.816;2022-12-29T14:52:14;100346.50;;;19.74;50.25
17254;BME280;32542;52.832;13.816;2022-12-29T14:55:37;100352.69;;;19.74;50.16
17254;BME280;32542;52.832;13.816;2022-12-29T14:58:46;100355.34;;;19.74;50.16
17254;BME280;32542;52.832;13.816;2022-12-29T15:01:52;100350.88;;;19.75;50.17
17254;BME280;32542;52.832;13.816;2022-12-29T15:04:59;100353.53;;;19.75;50.23
17254;BME280;32542;52.832;13.816;2022-12-29T15:08:05;100349.94;;;19.76;50.22
17254;BME280;32542;52.832;13.816;2022-12-29T15:11:13;100358.84;;;19.75;50.20
17254;BME280;32542;52.832;13.816;2022-12-29T15:14:32;100365.03;;;19.75;50.29
17254;BME280;32542;52.832;13.816;2022-12-29T15:17:35;100371.19;;;19.76;50.30
17254;BME280;32542;52.832;13.816;2022-12-29T15:20:41;100366.81;;;19.75;50.15
17254;BME280;32542;52.832;13.816;2022-12-29T15:23:46;100395.19;;;19.74;50.17
17254;BME280;32542;52.832;13.816;2022-12-29T15:26:51;100422.59;;;19.75;50.28
17254;BME280;32542;52.832;13.816;2022-12-29T15:29:57;100415.56;;;19.74;50.21
17254;BME280;32542;52.832;13.816;2022-12-29T15:33:00;100404.94;;;19.74;50.32
17254;BME280;32542;52.832;13.816;2022-12-29T15:36:10;100415.56;;;19.74;50.30
17254;BME280;32542;52.832;13.816;2022-12-29T15:39:28;100411.13;;;19.74;50.19
17254;BME280;32542;52.832;13.816;2022-12-29T15:42:47;100398.69;;;19.75;50.28
17254;BME280;32542;52.832;13.816;2022-12-29T15:45:55;100401.34;;;19.75;50.28
17254;BME280;32542;52.832;13.816;2022-12-29T15:48:58;100406.66;;;19.75;50.34
17254;BME280;32542;52.832;13.816;2022-12-29T15:52:06;100403.06;;;19.76;50.22
17254;BME280;32542;52.832;13.816;2022-12-29T15:55:19;100403.06;;;19.76;50.34
17254;BME280;32542;52.832;13.816;2022-12-29T15:58:25;100409.31;;;19.75;50.18
17254;BME280;32542;52.832;13.816;2022-12-29T16:01:30;100415.50;;;19.75;50.09
17254;BME280;32542;52.832;13.816;2022-12-29T16:04:34;100411.13;;;19.74;50.30
17254;BME280;32542;52.832;13.816;2022-12-29T16:07:59;100418.22;;;19.74;50.08
17254;BME280;32542;52.832;13.816;2022-12-29T16:11:08;100421.75;;;19.74;50.34
17254;BME280;32542;52.832;13.816;2022-12-29T16:14:21;100422.59;;;19.75;50.38
17254;BME280;32542;52.832;13.816;2022-12-29T16:17:28;100427.06;;;19.74;50.27